sensor_id;sensor_type;location;lat;lon;timestamp;P1;durP1;ratioP1;P2;durP2;ratioP2
68224;SDS011;57497;43.322;21.932;2024-01-30T00:00:37;32.8;;;16.4;;
68224;SDS011;57497;43.322;21.932;2024-01-30T00:05:35;22.1;;;8.8;;
68224;SDS011;57497;43.322;21.932;2024-01-30T00:10:33;16.1;;;10.6;;
68224;SDS011;57497;43.322;21.932;2024-01-30T00:15:34;20.3;;;11;;
68224;SDS011;57497;43.322;21.932;2024-01-30T00:20:33;19.9;;;11.8;;
68224;SDS011;57497;43.322;21.932;2024-01-30T00:25:34;18.3;;;10.6;;
68224;SDS011;57497;43.322;21.932;2024-01-30T00:30:33;30.4;;;14;;
68224;SDS011;57497;43.322;21.932;2024-01-30T00:35:33;34.4;;;14.3;;
68224;SDS011;57497;43.322;21.932;2024-01-30T00:40:33;28.3;;;16.2;;
68224;SDS011;57497;43.322;21.932;2024-01-30T00:45:33;23.5;;;12.6;;
68224;SDS011;57497;43.322;21.932;2024-01-30T00:50:33;19.3;;;10.2;;
68224;SDS011;57497;43.322;21.932;2024-01-30T00:55:33;14.4;;;9.2;;
68224;SDS011;57497;43.322;21.932;2024-01-30T01:00:35;16.8;;;9.1;;
68224;SDS011;57497;43.322;21.932;2024-01-30T01:05:33;19.8;;;9.7;;
68224;SDS011;57497;43.322;21.932;2024-01-30T01:10:33;22.9;;;10.6;;
68224;SDS011;57497;43.322;21.932;2024-01-30T01:15:34;13;;;8;;
68224;SDS011;57497;43.322;21.932;2024-01-30T01:20:33;16.7;;;9.4;;
68224;SDS011;57497;43.322;21.932;2024-01-30T01:25:33;17.2;;;9.5;;
68224;SDS011;57497;43.322;21.932;2024-01-30T01:30:34;16.3;;;10.2;;
68224;SDS011;57497;43.322;21.932;2024-01-30T01:35:33;21.1;;;9;;
68224;SDS011;57497;43.322;21.932;2024-01-30T01:40:34;18.7;;;9.4;;
68224;SDS011;57497;43.322;21.932;2024-01-30T01:45:33;17.2;;;8.1;;
68224;SDS011;57497;43.322;21.932;2024-01-30T01:50:34;11.3;;;6.7;;
68224;SDS011;57497;43.322;21.932;2024-01-30T01:55:33;13.3;;;8.7;;
68224;SDS011;57497;43.322;21.932;2024-01-30T02:00:36;18;;;8.3;;
68224;SDS011;57497;43.322;21.932;2024-01-30T02:05:33;20.7;;;10.4;;
68224;SDS011;57497;43.322;21.932;2024-01-30T02:10:34;12.9;;;7.1;;
68224;SDS011;57497;43.322;21.932;2024-01-30T02:15:33;20.1;;;7.7;;
68224;SDS011;57497;43.322;21.932;2024-01-30T02:20:34;19.2;;;9.6;;
68224;SDS011;57497;43.322;21.932;2024-01-30T02:25:38;13.2;;;8.1;;
68224;SDS011;57497;43.322;21.932;2024-01-30T02:30:34;22.8;;;10.4;;
68224;SDS011;57497;43.322;21.932;2024-01-30T02:35:33;17.8;;;9.4;;
68224;SDS011;57497;43.322;21.932;2024-01-30T02:40:34;19.5;;;8.6;;
68224;SDS011;57497;43.322;21.932;2024-01-30T02:45:33;15.7;;;7.2;;
68224;SDS011;57497;43.322;21.932;2024-01-30T02:50:33;25.7;;;10.5;;
68224;SDS011;57497;43.322;21.932;2024-01-30T02:55:34;15.1;;;8.6;;
68224;SDS011;57497;43.322;21.932;2024-01-30T03:00:35;17.5;;;8.9;;
68224;SDS011;57497;43.322;21.932;2024-01-30T03:05:34;12.4;;;7.4;;
68224;SDS011;57497;43.322;21.932;2024-01-30T03:10:33;13;;;7.2;;
68224;SDS011;57497;43.322;21.932;2024-01-30T03:15:33;13.1;;;9;;
68224;SDS011;57497;43.322;21.932;2024-01-30T03:20:33;13.6;;;8.5;;
68224;SDS011;57497;43.322;21.932;2024-01-30T03:25:33;14.7;;;8.3;;
68224;SDS011;57497;43.322;21.932;2024-01-30T03:30:34;22.6;;;8.9;;
68224;SDS011;57497;43.322;21.932;2024-01-30T03:35:33;17.8;;;7.5;;
68224;SDS011;57497;43.322;21.932;2024-01-30T03:40:34;20.8;;;7.7;;
68224;SDS011;57497;43.322;21.932;2024-01-30T03:45:33;15.3;;;9.3;;
68224;SDS011;57497;43.322;21.932;2024-01-30T03:50:33;13.4;;;8.6;;
68224;SDS011;57497;43.322;21.932;2024-01-30T03:55:33;11.6;;;7.3;;
68224;SDS011;57497;43.322;21.932;2024-01-30T04:00:35;13;;;8.4;;
68224;SDS011;57497;43.322;21.932;2024-01-30T04:05:34;15.9;;;9.5;;
68224;SDS011;57497;43.322;21.932;2024-01-30T04:10:34;20.1;;;7.1;;
68224;SDS011;57497;43.322;21.932;2024-01-30T04:15:34;16.9;;;9.3;;
68224;SDS011;57497;43.322;21.932;2024-01-30T04:20:33;10.4;;;6.7;;
68224;SDS011;57497;43.322;21.932;2024-01-30T04:25:34;17.6;;;7.1;;
68224;SDS011;57497;43.322;21.932;2024-01-30T04:30:33;22.4;;;12.3;;
68224;SDS011;57497;43.322;21.932;2024-01-30T04:35:33;17.4;;;9.8;;
68224;SDS011;57497;43.322;21.932;2024-01-30T04:40:34;11.3;;;6.3;;
68224;SDS011;57497;43.322;21.932;2024-01-30T04:45:33;7.2;;;5.6;;
68224;SDS011;57497;43.322;21.932;2024-01-30T04:50:33;8.4;;;5.1;;
68224;SDS011;57497;43.322;21.932;2024-01-30T04:55:34;13.4;;;7.3;;
68224;SDS011;57497;43.322;21.932;2024-01-30T05:00:35;16.6;;;6.8;;
68224;SDS011;57497;43.322;21.932;2024-01-30T05:05:33;9.7;;;6.1;;
68224;SDS011;57497;43.322;21.932;2024-01-30T05:10:33;10.9;;;7.2;;
68224;SDS011;57497;43.322;21.932;2024-01-30T05:15:33;14.2;;;10.2;;
68224;SDS011;57497;43.322;21.932;2024-01-30T05:20:33;19.5;;;10.6;;
68224;SDS011;57497;43.322;21.932;2024-01-30T05:25:33;23.1;;;11;;
68224;SDS011;57497;43.322;21.932;2024-01-30T05:30:33;17.9;;;11.4;;
68224;SDS011;57497;43.322;21.932;2024-01-30T05:35:33;34.3;;;12.3;;
68224;SDS011;57497;43.322;21.932;2024-01-30T05:40:33;17.1;;;11.2;;
68224;SDS011;57497;43.322;21.932;2024-01-30T05:45:34;29.1;;;11.7;;
68224;SDS011;57497;43.322;21.932;2024-01-30T05:50:33;21.2;;;11.8;;
68224;SDS011;57497;43.322;21.932;2024-01-30T05:55:33;19.6;;;10.4;;
68224;SDS011;57497;43.322;21.932;2024-01-30T06:00:35;22.7;;;13.4;;
68224;SDS011;57497;43.322;21.932;2024-01-30T06:05:35;16;;;9.6;;
68224;SDS011;57497;43.322;21.932;2024-01-30T06:10:34;26.3;;;11.9;;
68224;SDS011;57497;43.322;21.932;2024-01-30T06:15:33;18.2;;;11.3;;
68224;SDS011;57497;43.322;21.932;2024-01-30T06:20:33;31.4;;;12.9;;
68224;SDS011;57497;43.322;21.932;2024-01-30T06:25:34;36.6;;;15.8;;
68224;SDS011;57497;43.322;21.932;2024-01-30T06:30:34;22.4;;;12.7;;
68224;SDS011;57497;43.322;21.932;2024-01-30T06:35:33;18.5;;;12.2;;
68224;SDS011;57497;43.322;21.932;2024-01-30T06:40:33;11.5;;;7.3;;
68224;SDS011;57497;43.322;21.932;2024-01-30T06:45:33;19.5;;;9.7;;
68224;SDS011;57497;43.322;21.932;2024-01-30T06:50:33;17.5;;;9.4;;
68224;SDS011;57497;43.322;21.932;2024-01-30T06:55:34;22.1;;;11.4;;
68224;SDS011;57497;43.322;21.932;2024-01-30T07:00:35;23.3;;;13.9;;
68224;SDS011;57497;43.322;21.932;2024-01-30T07:05:34;23.4;;;12.8;;
68224;SDS011;57497;43.322;21.932;2024-01-30T07:10:33;32.6;;;15.1;;
68224;SDS011;57497;43.322;21.932;2024-01-30T07:15:34;21.6;;;10.7;;
68224;SDS011;57497;43.322;21.932;2024-01-30T07:20:33;17.9;;;10.9;;
68224;SDS011;57497;43.322;21.932;2024-01-30T07:25:34;23.4;;;12.3;;
68224;SDS011;57497;43.322;21.932;2024-01-30T07:30:33;23.9;;;12.6;;
68224;SDS011;57497;43.322;21.932;2024-01-30T07:35:33;21.5;;;11.7;;
68224;SDS011;57497;43.322;21.932;2024-01-30T07:40:33;52.1;;;14.9;;
68224;SDS011;57497;43.322;21.932;2024-01-30T07:45:34;25.7;;;15.2;;
68224;SDS011;57497;43.322;21.932;2024-01-30T07:50:33;25.3;;;14.2;;
68224;SDS011;57497;43.322;21.932;2024-01-30T07:55:34;26.1;;;12.1;;
68224;SDS011;57497;43.322;21.932;2024-01-30T08:00:35;26.8;;;10.4;;
68224;SDS011;57497;43.322;21.932;2024-01-30T08:05:33;14.4;;;7.9;;
68224;SDS011;57497;43.322;21.932;2024-01-30T08:10:33;18.5;;;8.1;;
68224;SDS011;57497;43.322;21.932;2024-01-30T08:15:34;13.3;;;8.1;;
68224;SDS011;57497;43.322;21.932;2024-01-30T08:20:33;12.5;;;7;;
68224;SDS011;57497;43.322;21.932;2024-01-30T08:25:33;7;;;3.8;;
68224;SDS011;57497;43.322;21.932;2024-01-30T08:30:33;10.3;;;5.3;;
68224;SDS011;57497;43.322;21.932;2024-01-30T08:35:34;6.5;;;4.4;;
68224;SDS011;57497;43.322;21.932;2024-01-30T08:40:33;11;;;4.6;;
68224;SDS011;57497;43.322;21.932;2024-01-30T08:45:34;8.4;;;4.2;;
68224;SDS011;57497;43.322;21.932;2024-01-30T08:50:33;16.8;;;7.7;;
68224;SDS011;57497;43.322;21.932;2024-01-30T08:55:34;5.5;;;2.9;;
68224;SDS011;57497;43.322;21.932;2024-01-30T09:00:35;7.1;;;3.5;;
68224;SDS011;57497;43.322;21.932;2024-01-30T09:05:34;8.5;;;4.8;;
68224;SDS011;57497;43.322;21.932;2024-01-30T09:10:33;3.9;;;3.3;;
68224;SDS011;57497;43.322;21.932;2024-01-30T09:15:34;4.8;;;2.7;;
68224;SDS011;57497;43.322;21.932;2024-01-30T09:20:33;5.1;;;3;;
68224;SDS011;57497;43.322;21.932;2024-01-30T09:25:33;4.7;;;3.2;;
68224;SDS011;57497;43.322;21.932;2024-01-30T09:30:33;7.5;;;5.1;;
68224;SDS011;57497;43.322;21.932;2024-01-30T09:35:33;9.4;;;5.8;;
68224;SDS011;57497;43.322;21.932;2024-01-30T09:40:33;20.2;;;12.4;;
68224;SDS011;57497;43.322;21.932;2024-01-30T09:45:33;19.4;;;9.8;;
68224;SDS011;57497;43.322;21.932;2024-01-30T09:50:33;8;;;4.9;;
68224;SDS011;57497;43.322;21.932;2024-01-30T09:55:34;9.6;;;6.8;;
68224;SDS011;57497;43.322;21.932;2024-01-30T10:00:35;13.5;;;9.2;;
68224;SDS011;57497;43.322;21.932;2024-01-30T10:05:33;10.1;;;6.7;;
68224;SDS011;57497;43.322;21.932;2024-01-30T10:10:33;8.9;;;5.8;;
68224;SDS011;57497;43.322;21.932;2024-01-30T10:15:34;8.2;;;5.8;;
68224;SDS011;57497;43.322;21.932;2024-01-30T10:20:33;16.3;;;7.8;;
68224;SDS011;57497;43.322;21.932;2024-01-30T10:25:34;18.2;;;9.7;;
68224;SDS011;57497;43.322;21.932;2024-01-30T10:30:33;7.3;;;5.5;;
68224;SDS011;57497;43.322;21.932;2024-01-30T10:35:33;8.7;;;4.9;;
68224;SDS011;57497;43.322;21.932;2024-01-30T10:40:33;10.2;;;6.2;;
68224;SDS011;57497;43.322;21.932;2024-01-30T10:45:33;27.2;;;7.8;;
68224;SDS011;57497;43.322;21.932;2024-01-30T10:50:33;19.7;;;7;;
68224;SDS011;57497;43.322;21.932;2024-01-30T10:55:33;10;;;6.6;;
68224;SDS011;57497;43.322;21.932;2024-01-30T11:00:36;22.9;;;8.6;;
68224;SDS011;57497;43.322;21.932;2024-01-30T11:05:35;19.6;;;7.3;;
68224;SDS011;57497;43.322;21.932;2024-01-30T11:10:33;16.1;;;9.2;;
68224;SDS011;57497;43.322;21.932;2024-01-30T11:15:37;23.8;;;11.7;;
68224;SDS011;57497;43.322;21.932;2024-01-30T11:20:34;15.5;;;9.3;;
68224;SDS011;57497;43.322;21.932;2024-01-30T11:25:33;13.5;;;7.7;;
68224;SDS011;57497;43.322;21.932;2024-01-30T11:30:34;8.4;;;5.6;;
68224;SDS011;57497;43.322;21.932;2024-01-30T11:35:34;14.9;;;7.9;;
68224;SDS011;57497;43.322;21.932;2024-01-30T11:40:33;10.2;;;6.8;;
68224;SDS011;57497;43.322;21.932;2024-01-30T11:45:34;8.9;;;5.2;;
68224;SDS011;57497;43.322;21.932;2024-01-30T11:50:33;8.5;;;4.9;;
68224;SDS011;57497;43.322;21.932;2024-01-30T11:55:34;7.2;;;4.5;;
68224;SDS011;57497;43.322;21.932;2024-01-30T12:00:36;14.9;;;6.4;;
68224;SDS011;57497;43.322;21.932;2024-01-30T12:05:33;11.7;;;6.6;;
68224;SDS011;57497;43.322;21.932;2024-01-30T12:10:34;10.8;;;5.1;;
68224;SDS011;57497;43.322;21.932;2024-01-30T12:15:33;13.4;;;7.3;;
68224;SDS011;57497;43.322;21.932;2024-01-30T12:20:34;12.2;;;7;;
68224;SDS011;57497;43.322;21.932;2024-01-30T12:25:33;11.3;;;7.7;;
68224;SDS011;57497;43.322;21.932;2024-01-30T12:30:34;75.2;;;26.7;;
68224;SDS011;57497;43.322;21.932;2024-01-30T12:35:34;14;;;9.3;;
68224;SDS011;57497;43.322;21.932;2024-01-30T12:40:34;10.6;;;7;;
68224;SDS011;57497;43.322;21.932;2024-01-30T12:45:33;7.7;;;5.7;;
68224;SDS011;57497;43.322;21.932;2024-01-30T12:50:34;8.8;;;7;;
68224;SDS011;57497;43.322;21.932;2024-01-30T12:55:33;9.1;;;5.5;;
68224;SDS011;57497;43.322;21.932;2024-01-30T13:00:35;10.1;;;7.6;;
68224;SDS011;57497;43.322;21.932;2024-01-30T13:05:33;9.2;;;7.5;;
68224;SDS011;57497;43.322;21.932;2024-01-30T13:10:33;9.3;;;6.9;;
68224;SDS011;57497;43.322;21.932;2024-01-30T13:15:34;10.4;;;7.2;;
68224;SDS011;57497;43.322;21.932;2024-01-30T13:20:34;8.4;;;7.3;;
68224;SDS011;57497;43.322;21.932;2024-01-30T13:25:33;9.2;;;7.7;;
68224;SDS011;57497;43.322;21.932;2024-01-30T13:30:34;10.4;;;8.3;;
68224;SDS011;57497;43.322;21.932;2024-01-30T13:35:33;13.6;;;7.6;;
68224;SDS011;57497;43.322;21.932;2024-01-30T13:40:34;10.7;;;7.6;;
68224;SDS011;57497;43.322;21.932;2024-01-30T13:45:33;20.5;;;15;;
68224;SDS011;57497;43.322;21.932;2024-01-30T13:50:34;23.9;;;14.9;;
68224;SDS011;57497;43.322;21.932;2024-01-30T13:55:33;14.7;;;7;;
68224;SDS011;57497;43.322;21.932;2024-01-30T14:00:36;11.8;;;10;;
68224;SDS011;57497;43.322;21.932;2024-01-30T14:05:33;16.2;;;14;;
68224;SDS011;57497;43.322;21.932;2024-01-30T14:10:34;14.3;;;8.9;;
68224;SDS011;57497;43.322;21.932;2024-01-30T14:15:33;12.9;;;9;;
68224;SDS011;57497;43.322;21.932;2024-01-30T14:20:33;11.4;;;6.8;;
68224;SDS011;57497;43.322;21.932;2024-01-30T14:25:33;13.9;;;7.9;;
68224;SDS011;57497;43.322;21.932;2024-01-30T14:30:34;12.5;;;7.6;;
68224;SDS011;57497;43.322;21.932;2024-01-30T14:35:33;12.6;;;8.2;;
68224;SDS011;57497;43.322;21.932;2024-01-30T14:40:33;19.8;;;9.5;;
68224;SDS011;57497;43.322;21.932;2024-01-30T14:45:33;13.8;;;8.5;;
68224;SDS011;57497;43.322;21.932;2024-01-30T14:50:33;18.9;;;8.2;;
68224;SDS011;57497;43.322;21.932;2024-01-30T14:55:33;19.4;;;14.4;;
68224;SDS011;57497;43.322;21.932;2024-01-30T15:00:35;19.2;;;9.5;;
68224;SDS011;57497;43.322;21.932;2024-01-30T15:05:35;44.2;;;15.3;;
68224;SDS011;57497;43.322;21.932;2024-01-30T15:10:34;21.8;;;11.7;;
68224;SDS011;57497;43.322;21.932;2024-01-30T15:15:33;30.6;;;12.8;;
68224;SDS011;57497;43.322;21.932;2024-01-30T15:20:34;30.5;;;19.1;;
68224;SDS011;57497;43.322;21.932;2024-01-30T15:25:33;20.5;;;14.1;;
68224;SDS011;57497;43.322;21.932;2024-01-30T15:30:34;28.5;;;14.3;;
68224;SDS011;57497;43.322;21.932;2024-01-30T15:35:33;22.5;;;13.1;;
68224;SDS011;57497;43.322;21.932;2024-01-30T15:40:33;28.7;;;14.5;;
68224;SDS011;57497;43.322;21.932;2024-01-30T15:45:33;39.8;;;13.2;;
68224;SDS011;57497;43.322;21.932;2024-01-30T15:50:33;26.4;;;11.4;;
68224;SDS011;57497;43.322;21.932;2024-01-30T15:55:33;21.3;;;11.5;;
68224;SDS011;57497;43.322;21.932;2024-01-30T16:00:35;29.3;;;14.8;;
68224;SDS011;57497;43.322;21.932;2024-01-30T16:05:33;25.6;;;12.7;;
68224;SDS011;57497;43.322;21.932;2024-01-30T16:10:33;20.8;;;11.4;;
68224;SDS011;57497;43.322;21.932;2024-01-30T16:15:33;36;;;14;;
68224;SDS011;57497;43.322;21.932;2024-01-30T16:20:33;36.1;;;19;;
68224;SDS011;57497;43.322;21.932;2024-01-30T16:25:33;31.4;;;21.7;;
68224;SDS011;57497;43.322;21.932;2024-01-30T16:30:33;17.8;;;11.1;;
68224;SDS011;57497;43.322;21.932;2024-01-30T16:35:33;19.6;;;11.4;;
68224;SDS011;57497;43.322;21.932;2024-01-30T16:40:33;21.3;;;10.6;;
68224;SDS011;57497;43.322;21.932;2024-01-30T16:45:34;29;;;13.8;;
68224;SDS011;57497;43.322;21.932;2024-01-30T16:50:33;47.1;;;26.5;;
68224;SDS011;57497;43.322;21.932;2024-01-30T16:55:34;44;;;24.6;;
68224;SDS011;57497;43.322;21.932;2024-01-30T17:00:35;42.4;;;25;;
68224;SDS011;57497;43.322;21.932;2024-01-30T17:05:34;52.1;;;29.7;;
68224;SDS011;57497;43.322;21.932;2024-01-30T17:10:33;86.4;;;39.1;;
68224;SDS011;57497;43.322;21.932;2024-01-30T17:15:34;65.2;;;32.7;;
68224;SDS011;57497;43.322;21.932;2024-01-30T17:20:33;26.2;;;16.9;;
68224;SDS011;57497;43.322;21.932;2024-01-30T17:25:34;59;;;22.5;;
68224;SDS011;57497;43.322;21.932;2024-01-30T17:30:33;73;;;21.9;;
68224;SDS011;57497;43.322;21.932;2024-01-30T17:35:34;47.9;;;21.3;;
68224;SDS011;57497;43.322;21.932;2024-01-30T17:40:33;71.4;;;27.6;;
68224;SDS011;57497;43.322;21.932;2024-01-30T17:45:34;30.7;;;15.6;;
68224;SDS011;57497;43.322;21.932;2024-01-30T17:50:33;28.9;;;13.7;;
68224;SDS011;57497;43.322;21.932;2024-01-30T17:55:34;37.3;;;16.6;;
68224;SDS011;57497;43.322;21.932;2024-01-30T18:00:35;47.2;;;24.2;;
68224;SDS011;57497;43.322;21.932;2024-01-30T18:05:33;22;;;12.8;;
68224;SDS011;57497;43.322;21.932;2024-01-30T18:10:33;19.9;;;12.6;;
68224;SDS011;57497;43.322;21.932;2024-01-30T18:15:34;30.4;;;16.7;;
68224;SDS011;57497;43.322;21.932;2024-01-30T18:20:33;41.4;;;23.7;;
68224;SDS011;57497;43.322;21.932;2024-01-30T18:25:33;68.4;;;29.5;;
68224;SDS011;57497;43.322;21.932;2024-01-30T18:30:33;88;;;38.7;;
68224;SDS011;57497;43.322;21.932;2024-01-30T18:35:33;79.8;;;38;;
68224;SDS011;57497;43.322;21.932;2024-01-30T18:40:33;62.4;;;32.7;;
68224;SDS011;57497;43.322;21.932;2024-01-30T18:45:34;69.9;;;30.2;;
68224;SDS011;57497;43.322;21.932;2024-01-30T18:50:33;46.4;;;22;;
68224;SDS011;57497;43.322;21.932;2024-01-30T18:55:33;36.5;;;24.3;;
68224;SDS011;57497;43.322;21.932;2024-01-30T19:00:35;29;;;15.9;;
68224;SDS011;57497;43.322;21.932;2024-01-30T19:05:33;28.3;;;16;;
68224;SDS011;57497;43.322;21.932;2024-01-30T19:10:33;52;;;20.3;;
68224;SDS011;57497;43.322;21.932;2024-01-30T19:15:34;45.2;;;24;;
68224;SDS011;57497;43.322;21.932;2024-01-30T19:20:33;58.4;;;24.1;;
68224;SDS011;57497;43.322;21.932;2024-01-30T19:25:33;44.2;;;21.3;;
68224;SDS011;57497;43.322;21.932;2024-01-30T19:30:34;39.4;;;20.6;;
68224;SDS011;57497;43.322;21.932;2024-01-30T19:35:33;55.1;;;22.8;;
68224;SDS011;57497;43.322;21.932;2024-01-30T19:40:34;68.3;;;29.3;;
68224;SDS011;57497;43.322;21.932;2024-01-30T19:45:33;49.4;;;32.8;;
68224;SDS011;57497;43.322;21.932;2024-01-30T19:50:33;60.7;;;34.4;;
68224;SDS011;57497;43.322;21.932;2024-01-30T19:55:33;76.9;;;32.4;;
68224;SDS011;57497;43.322;21.932;2024-01-30T20:00:35;41.3;;;25.3;;
68224;SDS011;57497;43.322;21.932;2024-01-30T20:05:33;40.9;;;22.2;;
68224;SDS011;57497;43.322;21.932;2024-01-30T20:10:34;38.3;;;21.5;;
68224;SDS011;57497;43.322;21.932;2024-01-30T20:15:33;45.3;;;23.7;;
68224;SDS011;57497;43.322;21.932;2024-01-30T20:20:34;48;;;26.2;;
68224;SDS011;57497;43.322;21.932;2024-01-30T20:25:33;63;;;25.1;;
68224;SDS011;57497;43.322;21.932;2024-01-30T20:30:34;46.3;;;21.4;;
68224;SDS011;57497;43.322;21.932;2024-01-30T20:35:33;29.9;;;17.2;;
68224;SDS011;57497;43.322;21.932;2024-01-30T20:40:34;42.7;;;16.1;;
68224;SDS011;57497;43.322;21.932;2024-01-30T20:45:33;19.1;;;11;;
68224;SDS011;57497;43.322;21.932;2024-01-30T20:50:34;18.9;;;12.5;;
68224;SDS011;57497;43.322;21.932;2024-01-30T20:55:33;22.5;;;11.5;;
68224;SDS011;57497;43.322;21.932;2024-01-30T21:00:36;21.6;;;13.1;;
68224;SDS011;57497;43.322;21.932;2024-01-30T21:05:33;26.6;;;12.5;;
68224;SDS011;57497;43.322;21.932;2024-01-30T21:10:34;23.2;;;11;;
68224;SDS011;57497;43.322;21.932;2024-01-30T21:15:33;18.8;;;10.3;;
68224;SDS011;57497;43.322;21.932;2024-01-30T21:20:34;27.9;;;13.8;;
68224;SDS011;57497;43.322;21.932;2024-01-30T21:25:33;22;;;13.7;;
68224;SDS011;57497;43.322;21.932;2024-01-30T21:30:34;22.1;;;13.1;;
68224;SDS011;57497;43.322;21.932;2024-01-30T21:35:33;30.8;;;17.2;;
68224;SDS011;57497;43.322;21.932;2024-01-30T21:40:34;40.6;;;20.8;;
68224;SDS011;57497;43.322;21.932;2024-01-30T21:45:33;41.6;;;23.6;;
68224;SDS011;57497;43.322;21.932;2024-01-30T21:50:34;41.6;;;21.3;;
68224;SDS011;57497;43.322;21.932;2024-01-30T21:55:34;48.6;;;22.6;;
68224;SDS011;57497;43.322;21.932;2024-01-30T22:00:35;51;;;18.1;;
68224;SDS011;57497;43.322;21.932;2024-01-30T22:05:34;45.2;;;23.8;;
68224;SDS011;57497;43.322;21.932;2024-01-30T22:10:33;74.9;;;32.1;;
68224;SDS011;57497;43.322;21.932;2024-01-30T22:15:34;59.6;;;28.1;;
68224;SDS011;57497;43.322;21.932;2024-01-30T22:20:33;57.4;;;27.8;;
68224;SDS011;57497;43.322;21.932;2024-01-30T22:25:33;50.6;;;27.2;;
68224;SDS011;57497;43.322;21.932;2024-01-30T22:30:34;51.6;;;24.5;;
68224;SDS011;57497;43.322;21.932;2024-01-30T22:35:33;47.9;;;27.2;;
68224;SDS011;57497;43.322;21.932;2024-01-30T22:40:33;41.5;;;21.9;;
68224;SDS011;57497;43.322;21.932;2024-01-30T22:45:34;43.9;;;23.8;;
68224;SDS011;57497;43.322;21.932;2024-01-30T22:50:33;45.5;;;19.6;;
68224;SDS011;57497;43.322;21.932;2024-01-30T22:55:34;29.4;;;17.8;;
68224;SDS011;57497;43.322;21.932;2024-01-30T23:00:35;28.5;;;16.6;;
68224;SDS011;57497;43.322;21.932;2024-01-30T23:05:35;37.1;;;17.2;;
68224;SDS011;57497;43.322;21.932;2024-01-30T23:10:34;53.5;;;24.6;;
68224;SDS011;57497;43.322;21.932;2024-01-30T23:15:33;55.7;;;27;;
68224;SDS011;57497;43.322;21.932;2024-01-30T23:20:34;54.8;;;25;;
68224;SDS011;57497;43.322;21.932;2024-01-30T23:25:33;51;;;28.5;;
68224;SDS011;57497;43.322;21.932;2024-01-30T23:30:34;60.4;;;29.1;;
68224;SDS011;57497;43.322;21.932;2024-01-30T23:35:33;72.8;;;28.4;;
68224;SDS011;57497;43.322;21.932;2024-01-30T23:40:34;69.7;;;31.6;;
68224;SDS011;57497;43.322;21.932;2024-01-30T23:45:33;68.1;;;32.2;;
68224;SDS011;57497;43.322;21.932;2024-01-30T23:50:34;85.7;;;31.4;;
68224;SDS011;57497;43.322;21.932;2024-01-30T23:55:33;44.2;;;22.5;;
